createdAt,value
2018-12-21T00:00:06.387Z,45.80
2018-12-21T00:02:34.714Z,46.17
2018-12-21T00:05:03.065Z,47.03
2018-12-21T00:07:31.403Z,48.33
2018-12-21T00:10:00.346Z,47.10
2018-12-21T00:12:28.679Z,47.43
2018-12-21T00:14:57.047Z,49.00
2018-12-21T00:17:25.381Z,49.97
2018-12-21T00:19:54.272Z,49.33
2018-12-21T00:22:22.604Z,48.83
2018-12-21T00:24:50.947Z,49.93
2018-12-21T00:27:19.280Z,48.60
2018-12-21T00:29:47.611Z,51.27
2018-12-21T00:32:21.567Z,49.77
2018-12-21T00:34:55.863Z,50.73
2018-12-21T00:37:29.916Z,50.73
2018-12-21T00:40:03.928Z,50.43
2018-12-21T00:42:34.508Z,52.53
2018-12-21T00:45:06.804Z,54.00
2018-12-21T00:47:35.227Z,53.13
2018-12-21T00:50:03.583Z,55.27
2018-12-21T00:52:31.901Z,54.60
2018-12-21T00:55:02.269Z,53.67
2018-12-21T00:57:29.616Z,54.57
2018-12-21T00:59:57.964Z,53.77
2018-12-21T01:02:26.384Z,53.03
2018-12-21T01:04:54.639Z,54.40
2018-12-21T01:07:24.142Z,53.53
2018-12-21T01:09:52.475Z,54.33
2018-12-21T01:12:21.170Z,54.57
2018-12-21T01:14:49.493Z,51.20
2018-12-21T01:17:17.845Z,49.40
2018-12-21T01:19:46.178Z,50.73
2018-12-21T01:22:14.518Z,51.97
2018-12-21T01:24:42.858Z,50.90
2018-12-21T01:27:11.188Z,50.03
2018-12-21T01:29:39.515Z,51.77
2018-12-21T01:32:07.861Z,50.47
2018-12-21T01:34:36.188Z,50.57
2018-12-21T01:37:04.542Z,51.30
2018-12-21T01:39:32.913Z,51.57
2018-12-21T01:42:01.493Z,51.80
2018-12-21T01:44:29.599Z,49.67
2018-12-21T01:46:57.944Z,49.97
2018-12-21T01:49:26.303Z,49.73
2018-12-21T01:51:54.650Z,49.37
2018-12-21T01:54:22.977Z,48.40
2018-12-21T01:56:51.325Z,48.47
2018-12-21T01:59:19.896Z,47.90
2018-12-21T02:01:47.998Z,46.80
2018-12-21T02:04:16.333Z,47.30
2018-12-21T02:06:44.677Z,49.37
2018-12-21T02:09:13.019Z,50.83
2018-12-21T02:11:41.355Z,48.80
2018-12-21T02:14:09.709Z,50.03
2018-12-21T02:16:38.052Z,51.87
2018-12-21T02:19:06.384Z,51.27
2018-12-21T02:21:34.728Z,52.20
2018-12-21T02:24:03.069Z,52.27
2018-12-21T02:26:31.409Z,54.03
2018-12-21T02:28:59.734Z,55.83
2018-12-21T02:31:28.084Z,58.33
2018-12-21T02:33:56.403Z,58.80
2018-12-21T02:36:24.747Z,61.33
2018-12-21T02:38:53.095Z,61.87
2018-12-21T02:41:21.468Z,65.37
2018-12-21T02:43:49.821Z,64.70
2018-12-21T02:46:18.157Z,67.07
2018-12-21T02:48:46.513Z,65.23
2018-12-21T02:51:14.856Z,64.53
2018-12-21T02:53:43.193Z,63.03
2018-12-21T02:56:11.537Z,60.93
2018-12-21T02:58:39.871Z,60.40
2018-12-21T03:01:08.443Z,58.53
2018-12-21T03:03:36.548Z,60.13
2018-12-21T03:06:04.925Z,59.63
2018-12-21T03:08:33.306Z,59.57
2018-12-21T03:11:01.621Z,58.27
2018-12-21T03:13:29.968Z,59.37
2018-12-21T03:15:58.309Z,59.53
2018-12-21T03:18:26.653Z,57.13
2018-12-21T03:20:54.976Z,56.43
2018-12-21T03:23:23.307Z,59.83
2018-12-21T03:25:51.647Z,58.87
2018-12-21T03:28:19.982Z,57.40
2018-12-21T03:30:48.334Z,55.73
2018-12-21T03:33:16.672Z,56.07
2018-12-21T03:35:44.997Z,56.27
2018-12-21T03:38:13.381Z,53.23
2018-12-21T03:40:41.704Z,52.00
2018-12-21T03:43:10.333Z,53.20
2018-12-21T03:45:38.669Z,52.13
2018-12-21T03:48:07.034Z,51.57
2018-12-21T03:50:35.387Z,51.00
2018-12-21T03:53:03.716Z,50.47
2018-12-21T03:55:32.061Z,49.53
2018-12-21T03:58:00.424Z,49.43
2018-12-21T04:00:28.756Z,50.07
2018-12-21T04:02:57.085Z,49.17
2018-12-21T04:05:25.413Z,49.70
2018-12-21T04:07:53.749Z,50.57
2018-12-21T04:10:22.081Z,49.40
2018-12-21T04:12:50.427Z,51.83
2018-12-21T04:15:18.765Z,52.27
2018-12-21T04:17:47.329Z,51.60
2018-12-21T04:20:15.683Z,50.30
2018-12-21T04:22:44.017Z,50.63
2018-12-21T04:25:12.357Z,49.20
2018-12-21T04:27:41.437Z,46.63
2018-12-21T04:30:09.772Z,45.07
2018-12-21T04:32:38.333Z,43.10
2018-12-21T04:35:06.446Z,44.00
2018-12-21T04:37:34.779Z,43.70
2018-12-21T04:40:03.112Z,45.50
2018-12-21T04:42:31.445Z,43.03
2018-12-21T04:45:00.312Z,44.20
2018-12-21T04:47:28.639Z,43.67
2018-12-21T04:49:56.965Z,43.93
2018-12-21T04:52:25.312Z,44.50
2018-12-21T04:54:53.644Z,43.63
2018-12-21T04:57:22.197Z,44.50
2018-12-21T04:59:50.310Z,43.27
2018-12-21T05:02:18.643Z,44.73
2018-12-21T05:04:46.981Z,43.47
2018-12-21T05:07:15.316Z,45.43
2018-12-21T05:09:43.646Z,47.27
2018-12-21T05:12:11.979Z,44.87
2018-12-21T05:14:40.631Z,48.23
2018-12-21T05:17:08.960Z,48.93
2018-12-21T05:19:37.299Z,48.00
2018-12-21T05:22:05.640Z,52.70
2018-12-21T05:24:33.987Z,53.13
2018-12-21T05:27:02.315Z,53.53
2018-12-21T05:29:30.650Z,53.63
2018-12-21T05:31:58.980Z,53.00
2018-12-21T05:34:27.335Z,50.03
2018-12-21T05:36:55.662Z,47.33
2018-12-21T05:39:24.039Z,46.80
2018-12-21T05:41:52.585Z,47.73
2018-12-21T05:44:20.742Z,46.67
2018-12-21T05:46:49.122Z,45.80
2018-12-21T05:49:17.464Z,48.13
2018-12-21T05:51:46.037Z,49.17
2018-12-21T05:54:14.380Z,48.43
2018-12-21T05:56:42.521Z,49.67
2018-12-21T05:59:10.857Z,49.43
2018-12-21T06:01:39.179Z,48.37
2018-12-21T06:04:07.548Z,57.40
2018-12-21T06:06:35.953Z,58.13
2018-12-21T06:09:04.286Z,63.67
2018-12-21T06:11:32.633Z,75.30
2018-12-21T06:14:01.164Z,64.80
2018-12-21T06:16:29.346Z,63.67
2018-12-21T06:18:57.947Z,63.70
2018-12-21T06:21:26.070Z,59.77
2018-12-21T06:23:54.458Z,60.53
2018-12-21T06:26:22.807Z,61.50
2018-12-21T06:28:51.134Z,64.87
2018-12-21T06:31:19.484Z,66.20
2018-12-21T06:33:47.835Z,64.23
2018-12-21T06:36:16.193Z,63.10
2018-12-21T06:38:44.559Z,67.30
2018-12-21T06:41:13.139Z,63.50
2018-12-21T06:43:41.483Z,56.93
2018-12-21T06:46:14.142Z,64.70
2018-12-21T06:48:38.179Z,66.23
2018-12-21T06:51:06.316Z,75.00
2018-12-21T06:53:34.652Z,83.43
2018-12-21T06:56:02.990Z,86.63
2018-12-21T06:58:31.586Z,84.67
2018-12-21T07:01:00.708Z,92.63
2018-12-21T07:03:28.390Z,80.57
2018-12-21T07:05:56.493Z,87.30
2018-12-21T07:08:24.837Z,92.43
2018-12-21T07:10:53.176Z,81.07
2018-12-21T07:13:21.520Z,79.40
2018-12-21T07:15:49.884Z,83.07
2018-12-21T07:18:18.208Z,78.80
2018-12-21T07:20:46.539Z,82.47
2018-12-21T07:23:14.881Z,83.27
2018-12-21T07:25:43.229Z,83.30
2018-12-21T07:28:11.574Z,79.40
2018-12-21T07:30:39.930Z,75.00
2018-12-21T07:33:08.275Z,71.30
2018-12-21T07:35:36.627Z,73.20
2018-12-21T07:38:04.971Z,76.57
2018-12-21T07:40:33.310Z,72.33
2018-12-21T07:43:01.667Z,70.73
2018-12-21T07:45:30.027Z,64.17
2018-12-21T07:47:59.695Z,61.23
2018-12-21T07:50:28.037Z,75.33
2018-12-21T07:52:56.391Z,140.47
2018-12-21T07:55:24.754Z,83.03
2018-12-21T07:57:53.089Z,74.07
2018-12-21T08:00:21.440Z,85.27
2018-12-21T08:02:49.779Z,69.40
2018-12-21T08:05:18.114Z,57.00
2018-12-21T08:07:46.451Z,57.60
2018-12-21T08:10:14.803Z,54.87
2018-12-21T08:12:43.138Z,55.27
2018-12-21T08:15:11.478Z,55.50
2018-12-21T08:17:39.791Z,54.97
2018-12-21T08:20:08.377Z,52.97
2018-12-21T08:22:36.711Z,52.23
2018-12-21T08:25:05.037Z,49.83
2018-12-21T08:27:33.378Z,46.83
2018-12-21T08:30:01.965Z,192.10
2018-12-21T08:32:30.297Z,82.47
2018-12-21T08:34:58.666Z,53.77
2018-12-21T08:37:26.917Z,54.50
2018-12-21T08:39:55.339Z,45.53
2018-12-21T08:42:23.870Z,43.47
2018-12-21T08:44:52.259Z,44.27
2018-12-21T08:47:21.122Z,44.60
2018-12-21T08:49:49.758Z,43.30
2018-12-21T08:52:18.144Z,45.60
2018-12-21T08:54:46.556Z,44.83
2018-12-21T08:57:14.951Z,43.93
2018-12-21T08:59:43.354Z,42.83
2018-12-21T09:02:11.696Z,43.23
2018-12-21T09:04:40.140Z,42.80
2018-12-21T09:07:08.762Z,43.43
2018-12-21T09:09:36.945Z,44.63
2018-12-21T09:12:05.189Z,40.77
2018-12-21T09:14:33.516Z,41.50
2018-12-21T09:17:01.895Z,44.83
2018-12-21T09:19:30.262Z,42.97
2018-12-21T09:21:58.865Z,45.70
2018-12-21T09:24:27.199Z,45.70
2018-12-21T09:26:56.453Z,46.43
2018-12-21T09:29:25.415Z,47.43
2018-12-21T09:31:53.923Z,46.70
2018-12-21T09:34:22.419Z,48.77
2018-12-21T09:36:50.758Z,49.97
2018-12-21T09:39:19.461Z,46.93
2018-12-21T09:41:48.358Z,48.10
2018-12-21T09:44:16.969Z,50.47
2018-12-21T09:46:46.913Z,60.10
2018-12-21T09:49:16.438Z,55.87
2018-12-21T09:51:45.376Z,60.60
2018-12-21T09:54:13.113Z,61.13
2018-12-21T09:56:42.824Z,60.73
2018-12-21T09:59:11.446Z,61.33
2018-12-21T10:01:39.909Z,63.17
2018-12-21T10:04:08.389Z,61.37
2018-12-21T10:06:37.886Z,60.87
2018-12-21T10:09:06.363Z,61.57
2018-12-21T10:11:35.149Z,63.60
2018-12-21T10:14:03.667Z,63.57
2018-12-21T10:16:32.017Z,65.23
2018-12-21T10:19:00.513Z,64.40
2018-12-21T10:21:29.012Z,62.23
2018-12-21T10:44:52.905Z,64.53
2018-12-21T10:47:22.467Z,77.37
2018-12-21T10:49:51.667Z,75.30
2018-12-21T10:52:20.345Z,92.77
2018-12-21T10:54:48.879Z,157.93
2018-12-21T10:57:17.448Z,100.97
2018-12-21T10:59:45.866Z,92.03
2018-12-21T11:02:14.215Z,87.50
2018-12-21T11:04:44.372Z,87.43
2018-12-21T11:07:12.965Z,79.20
2018-12-21T11:09:41.656Z,75.53
2018-12-21T11:12:10.012Z,72.53
2018-12-21T11:14:38.582Z,73.43
2018-12-21T11:17:08.208Z,72.47
2018-12-21T11:19:36.457Z,70.70
2018-12-21T11:22:05.900Z,73.87
2018-12-21T11:24:35.534Z,75.13
2018-12-21T11:27:02.734Z,80.47
2018-12-21T11:29:31.943Z,79.93
2018-12-21T11:32:00.410Z,85.13
2018-12-21T11:34:28.673Z,83.33
2018-12-21T11:36:57.021Z,83.37
2018-12-21T11:39:25.724Z,148.27
2018-12-21T11:41:54.065Z,174.57
2018-12-21T11:44:22.613Z,131.93
2018-12-21T11:46:51.029Z,98.53
2018-12-21T11:49:19.541Z,79.83
2018-12-21T11:51:50.510Z,75.50
2018-12-21T11:54:19.115Z,70.83
2018-12-21T11:56:47.570Z,70.57
2018-12-21T11:59:17.519Z,71.07
2018-12-21T12:01:45.968Z,70.13
2018-12-21T12:04:14.404Z,72.47
2018-12-21T12:06:42.881Z,86.77
2018-12-21T12:09:13.090Z,94.00
2018-12-21T12:11:40.260Z,59.07
2018-12-21T12:14:08.698Z,57.10
2018-12-21T12:16:38.100Z,54.67
2018-12-21T12:19:06.665Z,31.47
2018-12-21T12:21:35.547Z,33.27
2018-12-21T12:24:04.600Z,32.23
2018-12-21T12:26:33.991Z,31.70
2018-12-21T12:29:01.477Z,44.83
2018-12-21T12:31:29.806Z,122.97
2018-12-21T12:33:58.929Z,147.00
2018-12-21T12:36:27.267Z,72.80
2018-12-21T12:38:56.243Z,33.23
2018-12-21T12:41:24.518Z,35.77
2018-12-21T12:43:53.270Z,44.03
2018-12-21T12:46:21.632Z,38.33
2018-12-21T12:48:51.571Z,34.80
2018-12-21T12:51:20.435Z,34.93
2018-12-21T12:53:48.881Z,38.00
2018-12-21T12:56:18.217Z,39.20
2018-12-21T12:58:46.987Z,44.17
2018-12-21T13:01:15.790Z,42.53
2018-12-21T13:03:44.112Z,45.00
2018-12-21T13:06:12.538Z,42.30
2018-12-21T13:08:41.406Z,40.30
2018-12-21T13:11:10.260Z,36.07
2018-12-21T13:13:38.534Z,33.73
2018-12-21T13:16:08.030Z,31.37
2018-12-21T13:18:36.699Z,31.10
2018-12-21T13:21:05.128Z,31.90
2018-12-21T13:23:34.260Z,32.43
2018-12-21T13:26:02.615Z,33.93
2018-12-21T13:28:31.035Z,36.77
2018-12-21T13:30:59.720Z,36.33
2018-12-21T13:33:27.876Z,38.70
2018-12-21T13:35:56.194Z,39.23
2018-12-21T13:38:24.558Z,40.83
2018-12-21T13:40:53.117Z,40.90
2018-12-21T13:43:21.230Z,38.93
2018-12-21T13:45:49.578Z,64.63
2018-12-21T13:48:17.920Z,90.90
2018-12-21T13:50:46.315Z,49.33
2018-12-21T13:53:14.662Z,45.57
2018-12-21T13:55:42.990Z,63.83
2018-12-21T13:58:11.368Z,59.27
2018-12-21T14:00:40.497Z,59.73
2018-12-21T14:03:08.944Z,56.27
2018-12-21T14:05:37.215Z,50.27
2018-12-21T14:08:05.588Z,48.07
2018-12-21T14:10:33.926Z,37.07
2018-12-21T14:13:02.802Z,35.23
2018-12-21T14:15:31.419Z,35.67
2018-12-21T14:17:59.542Z,35.80
2018-12-21T14:20:27.882Z,36.80
2018-12-21T14:22:56.463Z,35.47
2018-12-21T14:25:28.784Z,37.53
2018-12-21T14:27:54.064Z,38.87
2018-12-21T14:30:22.408Z,39.10
2018-12-21T14:32:51.015Z,39.10
2018-12-21T14:35:19.354Z,40.10
2018-12-21T14:37:47.917Z,39.80
2018-12-21T14:40:16.419Z,44.03
2018-12-21T14:42:45.374Z,41.57
2018-12-21T14:45:13.722Z,38.80
2018-12-21T14:47:42.083Z,43.37
2018-12-21T14:50:10.423Z,43.87
2018-12-21T14:52:38.807Z,44.50
2018-12-21T14:55:07.239Z,44.03
2018-12-21T14:57:35.577Z,43.43
2018-12-21T15:00:03.932Z,48.17
2018-12-21T15:02:32.318Z,55.40
2018-12-21T15:05:00.786Z,68.60
2018-12-21T15:07:29.165Z,178.30
2018-12-21T15:09:58.267Z,154.20
2018-12-21T15:12:26.618Z,74.23
2018-12-21T15:14:55.001Z,54.87
2018-12-21T15:17:23.405Z,53.70
2018-12-21T15:19:51.768Z,56.53
2018-12-21T15:22:20.105Z,57.07
2018-12-21T15:24:48.469Z,55.33
2018-12-21T15:27:16.829Z,54.17
2018-12-21T15:29:45.511Z,54.60
2018-12-21T15:32:13.855Z,53.97
2018-12-21T15:34:42.416Z,50.13
2018-12-21T15:37:10.526Z,47.63
2018-12-21T15:39:38.856Z,40.63
2018-12-21T15:42:07.193Z,38.63
2018-12-21T15:44:35.541Z,34.47
2018-12-21T15:47:08.952Z,32.80
2018-12-21T15:49:32.242Z,29.67
2018-12-21T15:52:00.567Z,28.70
2018-12-21T15:54:28.919Z,31.17
2018-12-21T15:56:57.277Z,36.20
2018-12-21T15:59:26.695Z,38.73
2018-12-21T16:01:55.850Z,38.27
2018-12-21T16:04:24.244Z,41.53
2018-12-21T16:06:53.606Z,39.13
2018-12-21T16:09:21.772Z,104.73
2018-12-21T16:11:50.450Z,43.13
2018-12-21T16:14:18.795Z,38.40
2018-12-21T16:16:47.711Z,38.70
2018-12-21T16:19:16.561Z,36.63
2018-12-21T16:21:44.921Z,42.67
2018-12-21T16:24:13.262Z,37.73
2018-12-21T16:26:41.613Z,39.37
2018-12-21T16:29:09.989Z,50.30
2018-12-21T16:31:38.432Z,56.97
2018-12-21T16:34:07.348Z,60.23
2018-12-21T16:36:35.480Z,51.23
2018-12-21T16:39:03.877Z,49.27
2018-12-21T16:41:32.271Z,42.17
2018-12-21T16:44:00.682Z,35.37
2018-12-21T16:46:29.110Z,36.07
2018-12-21T16:48:57.558Z,33.97
2018-12-21T16:51:25.890Z,33.70
2018-12-21T16:53:54.227Z,33.77
2018-12-21T16:56:22.581Z,28.33
2018-12-21T16:58:50.958Z,29.83
2018-12-21T17:01:19.281Z,25.60
2018-12-21T17:03:47.622Z,26.50
2018-12-21T17:06:16.519Z,25.23
2018-12-21T17:08:44.886Z,24.60
2018-12-21T17:11:14.111Z,25.40
2018-12-21T17:13:41.585Z,26.30
2018-12-21T17:16:09.932Z,24.73
2018-12-21T17:18:38.279Z,23.60
2018-12-21T17:21:06.671Z,25.13
2018-12-21T17:23:35.007Z,27.00
2018-12-21T17:26:03.353Z,27.43
2018-12-21T17:28:31.705Z,29.03
2018-12-21T17:31:00.301Z,28.70
2018-12-21T17:33:28.420Z,32.33
2018-12-21T17:35:56.776Z,33.30
2018-12-21T17:38:26.084Z,32.30
2018-12-21T17:40:54.205Z,30.93
2018-12-21T17:43:22.570Z,31.17
2018-12-21T17:45:50.906Z,32.93
2018-12-21T17:48:19.319Z,31.13
2018-12-21T17:50:47.659Z,30.10
2018-12-21T17:53:16.131Z,29.90
2018-12-21T17:55:44.939Z,29.27
2018-12-21T17:58:14.080Z,30.37
2018-12-21T18:00:43.322Z,33.80
2018-12-21T18:03:11.560Z,37.63
2018-12-21T18:05:40.040Z,83.50
2018-12-21T18:08:08.472Z,33.37
2018-12-21T18:10:37.744Z,32.37
2018-12-21T18:13:06.162Z,35.93
2018-12-21T18:15:34.621Z,38.80
2018-12-21T18:18:02.961Z,39.90
2018-12-21T18:20:31.580Z,39.33
2018-12-21T18:22:59.687Z,41.47
2018-12-21T18:25:28.035Z,40.70
2018-12-21T18:27:56.718Z,40.30
2018-12-21T18:30:24.816Z,42.00
2018-12-21T18:32:53.286Z,188.07
2018-12-21T18:35:21.647Z,54.97
2018-12-21T18:37:49.986Z,39.73
2018-12-21T18:40:18.331Z,54.03
2018-12-21T18:42:46.676Z,44.27
2018-12-21T18:45:15.118Z,44.43
2018-12-21T18:47:43.475Z,46.67
2018-12-21T18:50:11.807Z,47.83
2018-12-21T18:52:40.172Z,46.10
2018-12-21T18:55:09.027Z,44.70
2018-12-21T18:57:37.369Z,43.80
2018-12-21T19:00:05.987Z,44.93
2018-12-21T19:02:34.113Z,47.47
2018-12-21T19:05:02.461Z,49.47
2018-12-21T19:07:30.804Z,52.50
2018-12-21T19:09:59.151Z,54.87
2018-12-21T19:12:27.519Z,54.37
2018-12-21T19:14:55.868Z,54.60
2018-12-21T19:17:24.435Z,52.70
2018-12-21T19:19:52.570Z,49.10
2018-12-21T19:22:20.923Z,50.67
2018-12-21T19:24:49.278Z,48.53
2018-12-21T19:27:17.673Z,48.40
2018-12-21T19:29:47.038Z,48.40
2018-12-21T19:32:25.569Z,48.87
2018-12-21T19:34:54.302Z,47.57
2018-12-21T19:37:22.931Z,50.97
2018-12-21T19:39:51.075Z,49.33
2018-12-21T19:42:19.417Z,48.83
2018-12-21T19:44:47.799Z,48.63
2018-12-21T19:47:16.148Z,50.40
2018-12-21T19:49:44.481Z,47.47
2018-12-21T19:52:12.866Z,47.10
2018-12-21T19:54:41.193Z,48.80
2018-12-21T19:59:45.416Z,47.30
2018-12-21T20:02:13.753Z,47.33
2018-12-21T20:04:42.838Z,46.07
2018-12-21T20:07:11.010Z,42.63
2018-12-21T20:09:39.379Z,42.43
2018-12-21T20:12:07.728Z,46.83
2018-12-21T20:14:36.090Z,45.47
2018-12-21T20:17:04.456Z,40.77
2018-12-21T20:19:32.803Z,42.47
2018-12-21T20:22:03.216Z,42.00
2018-12-21T20:24:31.561Z,42.80
2018-12-21T20:26:59.924Z,39.67
2018-12-21T20:29:30.206Z,41.93
2018-12-21T20:31:58.835Z,42.57
2018-12-21T20:34:27.477Z,41.30
2018-12-21T20:36:55.846Z,39.57
2018-12-21T20:39:24.188Z,40.13
2018-12-21T20:41:52.526Z,39.13
2018-12-21T20:44:26.741Z,40.03
2018-12-21T20:46:55.056Z,40.57
2018-12-21T20:49:23.411Z,41.23
2018-12-21T20:51:51.835Z,40.70
2018-12-21T20:54:20.201Z,42.20
2018-12-21T20:56:48.551Z,43.87
2018-12-21T20:59:16.893Z,40.87
2018-12-21T21:01:45.229Z,41.97
2018-12-21T21:04:13.800Z,41.13
2018-12-21T21:06:41.971Z,46.20
2018-12-21T21:09:10.330Z,39.73
2018-12-21T21:11:39.633Z,41.27
2018-12-21T21:14:08.201Z,40.50
2018-12-21T21:16:36.346Z,41.97
2018-12-21T21:19:04.852Z,40.13
2018-12-21T21:21:33.180Z,49.00
2018-12-21T21:24:03.973Z,46.63
2018-12-21T21:26:33.544Z,40.67
2018-12-21T21:29:03.831Z,40.53
2018-12-21T21:31:34.057Z,41.23
2018-12-21T21:34:02.437Z,42.37
2018-12-21T21:36:30.835Z,41.87
2018-12-21T21:39:00.899Z,42.83
2018-12-21T21:41:27.597Z,40.37
2018-12-21T21:43:55.945Z,40.13
2018-12-21T21:46:24.290Z,40.60
2018-12-21T23:01:03.050Z,47.93
2018-12-21T23:03:31.170Z,49.13
2018-12-21T23:05:59.497Z,49.40
2018-12-21T23:08:27.867Z,46.07
2018-12-21T23:10:56.180Z,46.43
2018-12-21T23:13:24.525Z,45.50
2018-12-21T23:15:52.857Z,45.27
2018-12-21T23:18:21.206Z,45.00
2018-12-21T23:20:49.543Z,43.03
2018-12-21T23:23:17.889Z,41.93
2018-12-21T23:25:46.226Z,41.53
2018-12-21T23:28:14.557Z,42.63
2018-12-21T23:30:42.895Z,42.47
2018-12-21T23:33:11.220Z,42.33
2018-12-21T23:35:39.559Z,41.50
2018-12-21T23:38:08.180Z,40.13
2018-12-21T23:40:36.589Z,39.93
2018-12-21T23:43:04.837Z,40.80
2018-12-21T23:45:33.168Z,40.87
2018-12-21T23:48:01.494Z,41.93
2018-12-21T23:50:29.837Z,41.27
2018-12-21T23:52:58.160Z,41.90
2018-12-21T23:55:26.486Z,39.47
2018-12-21T23:57:54.835Z,40.27
